Time;durP1;ratioP1;P1;durP2;ratioP2;P2;SDS_P1;SDS_P2;PMS_P1;PMS_P2;Temp;Humidity;BMP_temperature;BMP_pressure;BME280_temperature;BME280_humidity;BME280_pressure;Samples;Min_cycle;Max_cycle;Signal;HPM_P1;HPM_P2
2021/11/28 00:00:26;;;;;;;62.07;32.30;;;;;;;-142.75;100.00;76603.75;4985898;28;20033;-68
2021/11/28 00:02:53;;;;;;;60.87;31.60;;;;;;;-142.75;100.00;76605.72;4985607;28;20105;-68
2021/11/28 00:05:21;;;;;;;57.43;30.67;;;;;;;-142.75;100.00;76619.50;5002150;28;20013;-70
2021/11/28 00:08:03;;;;;;;59.47;30.30;;;;;;;-142.75;100.00;76625.41;4997626;28;20026;-71
2021/11/28 00:13:23;;;;;;;58.67;30.57;;;;;;;-142.75;100.00;76641.16;4986249;28;20100;-69
2021/11/28 00:15:49;;;;;;;57.40;28.50;;;;;;;-142.75;100.00;76631.31;4986352;28;20479;-66
2021/11/28 00:18:14;;;;;;;61.13;30.10;;;;;;;-142.75;100.00;76647.06;4986422;28;20033;-68
2021/11/28 00:20:39;;;;;;;58.73;29.30;;;;;;;-142.75;100.00;76670.69;4986847;28;20281;-69
2021/11/28 00:23:05;;;;;;;62.85;31.20;;;;;;;-142.75;100.00;76652.97;4991795;28;20288;-69
2021/11/28 00:25:30;;;;;;;61.53;29.65;;;;;;;-142.75;100.00;76652.97;4991481;28;20027;-68
2021/11/28 00:27:56;;;;;;;60.97;30.85;;;;;;;-142.75;100.00;76668.72;4991422;28;20128;-69
2021/11/28 00:30:25;;;;;;;58.78;30.55;;;;;;;-142.75;100.00;76670.69;4986823;28;20113;-67
2021/11/28 00:32:50;;;;;;;59.37;30.53;;;;;;;-142.75;100.00;76664.78;4987251;28;20444;-68
2021/11/28 00:35:16;;;;;;;61.17;30.42;;;;;;;-142.75;100.00;76680.53;4985939;28;20034;-68
2021/11/28 00:37:42;;;;;;;58.97;31.92;;;;;;;-142.75;100.00;76676.59;5003313;28;20068;-68
2021/11/28 00:40:09;;;;;;;59.53;29.83;;;;;;;-142.75;100.00;76674.63;5003640;28;20117;-69
2021/11/28 00:42:34;;;;;;;62.50;31.43;;;;;;;-142.75;100.00;76652.97;5004144;28;20025;-67
2021/11/28 00:44:59;;;;;;;63.80;31.05;;;;;;;-142.75;100.00;76660.84;5001655;28;20035;-69
2021/11/28 00:47:25;;;;;;;63.70;30.58;;;;;;;-142.75;100.00;76664.78;4990908;28;20052;-68
2021/11/28 00:50:03;;;;;;;58.55;30.35;;;;;;;-142.75;100.00;76647.06;4983755;28;20145;-68
2021/11/28 00:52:30;;;;;;;57.20;28.60;;;;;;;-142.75;100.00;76651.00;4979792;28;20048;-68
2021/11/28 00:54:55;;;;;;;64.87;31.10;;;;;;;-142.75;100.00;76660.84;4985084;28;20030;-67
2021/11/28 00:57:23;;;;;;;59.63;32.05;;;;;;;-142.75;100.00;76662.81;4997939;28;20037;-67
2021/11/28 00:59:49;;;;;;;64.70;31.03;;;;;;;-142.75;100.00;76668.72;4994516;28;20088;-67
2021/11/28 01:02:16;;;;;;;61.28;30.02;;;;;;;-142.75;100.00;76672.66;4996006;28;20030;-68
2021/11/28 01:04:42;;;;;;;61.07;31.73;;;;;;;-142.75;100.00;76674.63;4985726;28;20076;-69
2021/11/28 01:07:07;;;;;;;59.97;30.30;;;;;;;-142.75;100.00;76672.66;4982974;28;20026;-69
2021/11/28 01:09:32;;;;;;;61.15;30.55;;;;;;;-142.75;100.00;76668.72;4985526;28;20094;-68
2021/11/28 01:11:57;;;;;;;59.43;29.50;;;;;;;-142.75;100.00;76672.66;4993104;28;20025;-69
2021/11/28 01:14:23;;;;;;;58.85;30.77;;;;;;;-142.75;100.00;76672.66;4992870;28;20490;-69
2021/11/28 01:16:48;;;;;;;58.05;30.77;;;;;;;-142.75;100.00;76682.50;4997295;28;20607;-68
2021/11/28 01:19:13;;;;;;;57.35;29.92;;;;;;;-142.75;100.00;76688.41;4989521;28;20065;-69
2021/11/28 01:21:52;;;;;;;56.95;28.95;;;;;;;-142.75;100.00;76688.41;4988838;28;20030;-69
2021/11/28 01:24:17;;;;;;;59.13;29.07;;;;;;;-142.75;100.00;76692.34;4989320;28;20014;-68
2021/11/28 01:26:43;;;;;;;58.63;31.13;;;;;;;-142.75;100.00;76698.25;4987322;28;20506;-69
2021/11/28 01:29:08;;;;;;;57.60;29.90;;;;;;;-142.75;100.00;76696.28;5007226;28;20037;-69
2021/11/28 01:31:33;;;;;;;59.47;30.40;;;;;;;-142.75;100.00;76688.41;5008256;28;20030;-69
2021/11/28 01:33:59;;;;;;;60.63;31.33;;;;;;;-142.75;100.00;76694.31;5009003;28;20324;-67
2021/11/28 01:36:24;;;;;;;58.33;30.30;;;;;;;-142.75;100.00;76696.28;5009204;28;20502;-69
2021/11/28 01:38:49;;;;;;;59.85;31.38;;;;;;;-142.75;100.00;76680.53;5006010;28;20280;-67
2021/11/28 01:41:15;;;;;;;58.20;30.50;;;;;;;-142.75;100.00;76692.34;5008753;28;20037;-68
2021/11/28 01:43:40;;;;;;;62.55;29.77;;;;;;;-142.75;100.00;76696.28;5008961;28;20033;-68
2021/11/28 01:46:06;;;;;;;59.15;30.42;;;;;;;-142.75;100.00;76712.03;5007900;28;20470;-69
2021/11/28 01:48:31;;;;;;;56.03;29.23;;;;;;;-142.75;100.00;76706.13;5008883;28;20049;-68
2021/11/28 01:51:01;;;;;;;58.20;30.40;;;;;;;-142.75;100.00;76704.16;5006776;28;20280;-68
2021/11/28 01:53:28;;;;;;;55.33;29.60;;;;;;;-142.75;100.00;76708.09;5008706;28;20026;-68
2021/11/28 01:55:54;;;;;;;47.87;28.43;;;;;;;-142.75;100.00;76698.25;5007528;28;20026;-68
2021/11/28 01:58:20;;;;;;;50.58;28.23;;;;;;;-142.75;100.00;76700.22;5008802;28;20085;-68
2021/11/28 02:00:52;;;;;;;50.20;27.67;;;;;;;-142.75;100.00;76694.31;5008376;28;20036;-69
2021/11/28 02:03:18;;;;;;;53.80;27.87;;;;;;;-142.75;100.00;76696.28;5007943;28;20036;-68
2021/11/28 02:05:48;;;;;;;49.70;27.80;;;;;;;-142.75;100.00;76704.16;4996657;28;20019;-69
2021/11/28 02:08:14;;;;;;;48.33;27.23;;;;;;;-142.75;100.00;76712.03;4987283;28;20030;-69
2021/11/28 02:10:39;;;;;;;48.63;28.60;;;;;;;-142.75;100.00;76714.00;4988423;28;20164;-68
2021/11/28 02:13:05;;;;;;;50.35;29.02;;;;;;;-142.75;100.00;76708.09;4989049;28;20033;-69
2021/11/28 02:15:31;;;;;;;52.20;28.83;;;;;;;-142.75;100.00;76708.09;4987724;28;20023;-68
2021/11/28 02:17:57;;;;;;;47.17;27.17;;;;;;;-142.75;100.00;76700.22;4987532;28;20026;-69
2021/11/28 02:20:26;;;;;;;45.53;26.67;;;;;;;-142.75;100.00;76694.31;4988225;28;20522;-68
2021/11/28 02:22:52;;;;;;;45.73;27.43;;;;;;;-142.75;100.00;76704.16;4988874;28;20027;-68
2021/11/28 02:25:17;;;;;;;;;;;;;;;-142.75;100.00;76696.28;4988437;28;20019;-68
2021/11/28 02:27:43;;;;;;;48.83;27.23;;;;;;;-142.75;100.00;76696.28;4987527;28;19921;-69
2021/11/28 02:30:10;;;;;;;46.05;26.38;;;;;;;-142.75;100.00;76692.34;4986839;28;20034;-68
2021/11/28 02:32:36;;;;;;;48.63;28.47;;;;;;;-142.75;100.00;76686.44;5004027;28;20041;-69
2021/11/28 02:35:02;;;;;;;;;;;;;;;-142.75;100.00;76692.34;5008626;28;20030;-69
2021/11/28 02:37:27;;;;;;;47.37;26.33;;;;;;;-142.75;100.00;76692.34;5007974;28;19920;-69
2021/11/28 02:39:53;;;;;;;47.80;27.42;;;;;;;-142.75;100.00;76702.19;5006217;28;20025;-69
2021/11/28 02:42:21;;;;;;;48.85;27.08;;;;;;;-142.75;100.00;76700.22;5008435;28;20030;-67
2021/11/28 02:44:48;;;;;;;48.23;27.37;;;;;;;-142.75;100.00;76715.97;5007136;28;20386;-69
2021/11/28 02:47:13;;;;;;;47.20;26.57;;;;;;;-142.75;100.00;76727.78;5006876;28;20026;-69
2021/11/28 02:49:39;;;;;;;47.88;27.20;;;;;;;-142.75;100.00;76717.94;5004832;28;20300;-67
2021/11/28 02:52:09;;;;;;;46.33;26.42;;;;;;;-142.75;100.00;76725.81;4988343;28;20491;-68
2021/11/28 02:54:34;;;;;;;47.47;27.07;;;;;;;-142.75;100.00;76721.88;4988283;28;20083;-69
2021/11/28 02:57:00;;;;;;;48.43;27.67;;;;;;;-142.75;100.00;76725.81;4988346;28;20026;-68
2021/11/28 02:59:26;;;;;;;49.63;28.23;;;;;;;-142.75;100.00;76733.69;4987042;28;20288;-68
2021/11/28 03:01:51;;;;;;;49.50;27.40;;;;;;;-142.75;100.00;76733.69;4991366;28;20030;-68
2021/11/28 03:04:17;;;;;;;46.13;27.57;;;;;;;-142.75;100.00;76725.81;5001468;28;20496;-69
2021/11/28 03:06:42;;;;;;;47.92;28.05;;;;;;;-142.75;100.00;76737.63;4987056;28;20269;-68
2021/11/28 03:09:08;;;;;;;48.03;26.33;;;;;;;-142.75;100.00;76731.72;4992404;28;20084;-68
2021/11/28 03:11:33;;;;;;;46.87;26.97;;;;;;;-142.75;100.00;76735.66;4984961;28;20064;-69
2021/11/28 03:13:58;;;;;;;48.58;28.80;;;;;;;-142.75;100.00;76725.81;4988019;28;20034;-69
2021/11/28 03:16:25;;;;;;;47.30;27.80;;;;;;;-142.75;100.00;76733.69;4986824;28;20030;-68
2021/11/28 03:18:52;;;;;;;45.70;27.27;;;;;;;-142.75;100.00;76715.97;4986842;28;20316;-68
2021/11/28 03:21:27;;;;;;;44.03;26.93;;;;;;;-142.75;100.00;76715.97;4987531;28;20068;-68
2021/11/28 03:23:56;;;;;;;46.17;27.93;;;;;;;-142.75;100.00;76719.91;4993421;28;20413;-69
2021/11/28 03:26:31;;;;;;;46.53;27.50;;;;;;;-142.75;100.00;76717.94;5006300;28;20026;-67
2021/11/28 03:29:04;;;;;;;44.47;27.33;;;;;;;-142.75;100.00;76715.97;5007363;28;20026;-69
2021/11/28 03:31:35;;;;;;;42.70;26.53;;;;;;;-142.75;100.00;76715.97;5006666;28;20094;-69
2021/11/28 03:34:01;;;;;;;41.47;26.13;;;;;;;-142.75;100.00;76719.91;5006014;28;20034;-69
2021/11/28 03:36:28;;;;;;;;;;;;;;;-142.75;100.00;76723.84;5006547;28;20117;-68
2021/11/28 03:38:54;;;;;;;41.15;25.85;;;;;;;-142.75;100.00;76733.69;5006017;28;19914;-67
2021/11/28 03:41:21;;;;;;;43.80;26.73;;;;;;;-142.75;100.00;76745.50;5006433;28;20029;-66
2021/11/28 03:43:50;;;;;;;46.10;25.87;;;;;;;-142.75;100.00;76751.41;5007433;28;20035;-68
2021/11/28 03:46:15;;;;;;;43.80;24.97;;;;;;;-142.75;100.00;76763.22;4991159;28;20069;-69
2021/11/28 03:48:41;;;;;;;40.85;24.90;;;;;;;-142.75;100.00;76777.00;4986338;28;20053;-69
2021/11/28 03:51:07;;;;;;;40.33;24.83;;;;;;;-142.75;100.00;76786.84;4986841;28;20034;-68
2021/11/28 03:53:33;;;;;;;38.90;24.02;;;;;;;-142.75;100.00;76804.53;4986287;28;20026;-69
2021/11/28 03:56:02;;;;;;;37.55;24.23;;;;;;;-142.75;100.00;76826.19;4987537;28;20037;-68
2021/11/28 03:58:28;;;;;;;40.07;23.53;;;;;;;-142.75;100.00;76834.06;4987456;28;20105;-68
2021/11/28 04:00:55;;;;;;;38.40;22.80;;;;;;;-142.75;100.00;76847.84;4986664;28;20565;-68
2021/11/28 04:03:20;;;;;;;;;;;;;;;-142.75;100.00;76834.06;4986664;28;20031;-67
2021/11/28 04:05:45;;;;;;;35.83;21.97;;;;;;;-142.75;100.00;76838.00;4986418;28;19971;-68
2021/11/28 04:08:10;;;;;;;31.93;19.90;;;;;;;-142.75;100.00;76839.97;4985986;28;20034;-69
2021/11/28 04:10:36;;;;;;;32.75;20.70;;;;;;;-142.75;100.00;76845.88;4986579;28;20052;-69
2021/11/28 04:13:01;;;;;;;34.38;21.55;;;;;;;-142.75;100.00;76838.00;4986155;28;20391;-68
2021/11/28 04:15:27;;;;;;;39.83;22.27;;;;;;;-142.75;100.00;76865.56;5002191;28;20018;-68
2021/11/28 04:17:52;;;;;;;37.13;22.10;;;;;;;-142.75;100.00;76873.44;5005357;28;20030;-68
2021/11/28 04:20:17;;;;;;;36.85;22.77;;;;;;;-142.75;100.00;76899.03;5005014;28;20528;-69
2021/11/28 04:22:43;;;;;;;40.88;23.67;;;;;;;-142.75;100.00;76897.06;5006629;28;20030;-69
2021/11/28 04:25:11;;;;;;;43.38;25.08;;;;;;;-142.75;100.00;76899.03;5006663;28;20026;-69
2021/11/28 04:27:37;;;;;;;44.00;26.80;;;;;;;-142.75;100.00;76897.06;5004783;28;20025;-68
2021/11/28 04:30:05;;;;;;;44.42;25.27;;;;;;;-142.75;100.00;76893.13;5004695;28;20045;-69
2021/11/28 04:32:31;;;;;;;44.33;25.60;;;;;;;-142.75;100.00;76893.13;5005293;28;20026;-68
2021/11/28 04:34:56;;;;;;;43.17;24.63;;;;;;;-142.75;100.00;76902.97;5006534;28;20029;-68
2021/11/28 04:37:21;;;;;;;42.45;23.77;;;;;;;-142.75;100.00;76916.75;5005043;28;20025;-67
2021/11/28 04:39:47;;;;;;;41.50;24.75;;;;;;;-142.75;100.00;76928.56;5005930;28;20036;-67
2021/11/28 04:42:13;;;;;;;37.35;22.08;;;;;;;-142.75;100.00;76930.53;5006390;28;20364;-67
2021/11/28 04:44:38;;;;;;;35.58;20.98;;;;;;;-142.75;100.00;76924.63;5006511;28;20029;-68
2021/11/28 04:47:03;;;;;;;39.50;21.33;;;;;;;-142.75;100.00;76924.63;5005038;28;20369;-68
2021/11/28 04:49:29;;;;;;;35.97;21.70;;;;;;;-142.75;100.00;76926.59;4992110;28;20851;-68
2021/11/28 04:51:54;;;;;;;39.22;21.92;;;;;;;-142.75;100.00;76940.38;4986217;28;20116;-67
2021/11/28 04:54:20;;;;;;;34.17;21.50;;;;;;;-142.75;100.00;76944.31;4986625;28;20384;-66
2021/11/28 04:56:45;;;;;;;32.33;19.00;;;;;;;-142.75;100.00;76944.31;4985875;28;20027;-68
2021/11/28 04:59:10;;;;;;;34.25;19.50;;;;;;;-142.75;100.00;76936.44;4985536;28;20130;-68
2021/11/28 05:01:36;;;;;;;35.17;20.20;;;;;;;-142.75;100.00;76962.03;4989952;28;20117;-68
2021/11/28 05:04:02;;;;;;;36.22;21.80;;;;;;;-142.75;100.00;76948.25;5006120;28;20025;-67
2021/11/28 05:06:27;;;;;;;36.13;22.52;;;;;;;-142.75;100.00;76954.16;5006200;28;20022;-67
2021/11/28 05:08:53;;;;;;;29.92;19.05;;;;;;;-142.75;100.00;76954.16;5005840;28;20030;-68
2021/11/28 05:11:19;;;;;;;35.58;20.83;;;;;;;-142.75;100.00;76958.09;4999648;28;20103;-67
2021/11/28 05:13:44;;;;;;;35.60;21.33;;;;;;;-142.75;100.00;76954.16;4985570;28;20031;-68
2021/11/28 05:16:10;;;;;;;37.42;21.88;;;;;;;-142.75;100.00;76964.00;4985349;28;20084;-68
2021/11/28 05:18:35;;;;;;;38.42;21.95;;;;;;;-142.75;100.00;76958.09;4986408;28;20073;-68
2021/11/28 05:21:00;;;;;;;42.30;22.98;;;;;;;-142.75;100.00;76950.22;4985697;28;20463;-67
2021/11/28 05:23:26;;;;;;;36.92;22.15;;;;;;;-142.75;100.00;76962.03;4986414;28;20030;-68
2021/11/28 05:25:51;;;;;;;44.13;25.13;;;;;;;-142.75;100.00;76969.91;4998934;28;20030;-67
2021/11/28 05:28:16;;;;;;;38.08;21.95;;;;;;;-142.75;100.00;76975.81;5004961;28;20025;-68
2021/11/28 05:30:42;;;;;;;37.03;21.17;;;;;;;-142.75;100.00;76981.72;5005104;28;20487;-68
2021/11/28 05:33:07;;;;;;;40.28;22.40;;;;;;;-142.75;100.00;76979.75;5005817;28;20150;-68
2021/11/28 05:35:33;;;;;;;34.63;19.85;;;;;;;-142.75;100.00;76987.63;5005811;28;20029;-68
2021/11/28 05:37:58;;;;;;;31.00;19.27;;;;;;;-142.75;100.00;76999.44;5005856;28;20030;-67
2021/11/28 05:40:24;;;;;;;33.75;18.35;;;;;;;-142.75;100.00;77005.34;5005948;28;20030;-67
2021/11/28 05:42:52;;;;;;;31.50;19.15;;;;;;;-142.75;100.00;77005.34;5008066;28;20022;-66
2021/11/28 05:45:20;;;;;;;33.73;19.33;;;;;;;-142.75;100.00;76999.44;5009383;28;20030;-67
2021/11/28 05:47:46;;;;;;;28.97;17.67;;;;;;;-142.75;100.00;77015.19;5009211;28;20445;-68
2021/11/28 05:50:11;;;;;;;34.45;18.27;;;;;;;-142.75;100.00;77023.06;5008179;28;20372;-67
2021/11/28 05:52:37;;;;;;;34.78;19.95;;;;;;;-142.75;100.00;77019.13;5007657;28;20116;-68
2021/11/28 05:55:03;;;;;;;34.45;20.67;;;;;;;-142.75;100.00;77017.16;5007575;28;20075;-67
2021/11/28 05:57:29;;;;;;;36.20;19.63;;;;;;;-142.75;100.00;76997.47;5007616;28;20083;-68
2021/11/28 05:59:54;;;;;;;38.08;22.08;;;;;;;-142.75;100.00;77013.22;5008052;28;20491;-67
2021/11/28 06:02:20;;;;;;;39.78;21.30;;;;;;;-142.75;100.00;77001.41;5008667;28;20058;-66
2021/11/28 06:04:45;;;;;;;39.38;20.40;;;;;;;-142.75;100.00;76989.59;5009034;28;20026;-68
2021/11/28 06:07:10;;;;;;;39.05;22.23;;;;;;;-142.75;100.00;76991.56;5008411;28;20022;-68
2021/11/28 06:09:36;;;;;;;40.45;22.75;;;;;;;-142.75;100.00;76987.63;5020925;23;20050;-65
2021/11/28 06:12:01;;;;;;;35.25;20.63;;;;;;;-142.75;100.00;76989.59;4986988;28;20054;-65
2021/11/28 06:14:27;;;;;;;38.53;20.92;;;;;;;-142.75;100.00;76987.63;4989090;28;20030;-65
2021/11/28 06:16:52;;;;;;;34.72;20.83;;;;;;;-142.75;100.00;76997.47;4988964;28;20197;-65
2021/11/28 06:19:17;;;;;;;37.55;20.38;;;;;;;-142.75;100.00;76999.44;4989067;28;20429;-65
2021/11/28 06:21:43;;;;;;;34.88;19.02;;;;;;;-142.75;100.00;77011.25;4988217;28;20027;-65
2021/11/28 06:24:08;;;;;;;26.95;17.23;;;;;;;-142.75;100.00;77013.22;4988926;28;20023;-65
2021/11/28 06:26:33;;;;;;;29.70;18.20;;;;;;;-142.75;100.00;77030.94;4988892;28;20026;-65
2021/11/28 06:28:59;;;;;;;31.43;18.03;;;;;;;-142.75;100.00;77028.97;4987562;28;20022;-65
2021/11/28 06:31:24;;;;;;;35.47;19.70;;;;;;;-142.75;100.00;77017.16;4986814;28;20639;-65
2021/11/28 06:33:49;;;;;;;32.25;18.90;;;;;;;-142.75;100.00;77017.16;4988367;28;20046;-65
2021/11/28 06:36:15;;;;;;;33.67;19.08;;;;;;;-142.75;100.00;77015.19;4988952;28;20026;-65
2021/11/28 06:38:40;;;;;;;34.78;19.55;;;;;;;-142.75;100.00;77015.19;4988683;28;20030;-65
2021/11/28 06:41:05;;;;;;;31.90;18.65;;;;;;;-142.75;100.00;77032.91;4987883;28;20033;-66
2021/11/28 06:43:31;;;;;;;26.20;15.70;;;;;;;-142.75;100.00;77050.63;4988743;28;20034;-65
2021/11/28 06:45:56;;;;;;;26.23;16.15;;;;;;;-142.75;100.00;77095.91;4988570;28;20030;-65
2021/11/28 06:48:22;;;;;;;23.30;14.20;;;;;;;-142.75;100.00;77115.59;4988523;28;20026;-65
2021/11/28 06:50:49;;;;;;;25.73;15.18;;;;;;;-142.75;100.00;77119.53;4987665;28;20029;-65
2021/11/28 06:53:15;;;;;;;32.20;18.23;;;;;;;-142.75;100.00;77109.69;4988819;28;20026;-65
2021/11/28 06:55:40;;;;;;;27.52;16.33;;;;;;;-142.75;100.00;77111.66;4988602;28;20026;-65
2021/11/28 06:58:05;;;;;;;32.70;17.48;;;;;;;-142.75;100.00;77105.75;4987102;28;20029;-65
2021/11/28 07:00:31;;;;;;;32.85;18.33;;;;;;;-142.75;100.00;77097.88;4987619;28;20030;-65
2021/11/28 07:02:56;;;;;;;31.38;18.55;;;;;;;-142.75;100.00;77084.09;4988002;28;20090;-65
2021/11/28 07:05:22;;;;;;;34.87;18.63;;;;;;;-142.75;100.00;77072.28;4988504;28;20384;-65
2021/11/28 07:07:47;;;;;;;40.58;21.00;;;;;;;-142.75;100.00;77064.41;4988474;28;20274;-65
2021/11/28 07:10:12;;;;;;;29.03;16.23;;;;;;;-142.75;100.00;77074.25;4987357;28;20115;-65
2021/11/28 07:12:38;;;;;;;30.07;18.27;;;;;;;-142.75;100.00;77074.25;4988244;28;20277;-65
2021/11/28 07:15:03;;;;;;;33.38;19.13;;;;;;;-142.75;100.00;77072.28;4988013;28;20293;-65
2021/11/28 07:17:29;;;;;;;27.30;15.93;;;;;;;-142.75;100.00;77080.16;4987990;28;20134;-65
2021/11/28 07:19:54;;;;;;;31.13;17.50;;;;;;;-142.75;100.00;77074.25;4985941;28;20030;-65
2021/11/28 07:22:19;;;;;;;37.23;21.10;;;;;;;-142.75;100.00;77072.28;4988168;28;20025;-65
2021/11/28 07:24:45;;;;;;;34.42;18.83;;;;;;;-142.75;100.00;77062.44;4987060;28;20702;-65
2021/11/28 07:27:10;;;;;;;34.65;19.35;;;;;;;-142.75;100.00;77054.56;4987997;28;20057;-65
2021/11/28 07:29:36;;;;;;;38.13;21.08;;;;;;;-142.75;100.00;77046.69;4987819;28;20117;-65
2021/11/28 07:32:01;;;;;;;38.58;20.25;;;;;;;-142.75;100.00;77034.88;4987059;28;20674;-65
2021/11/28 07:34:27;;;;;;;41.47;22.35;;;;;;;-142.75;100.00;77021.09;4987816;28;20388;-65
2021/11/28 07:36:52;;;;;;;36.33;20.53;;;;;;;-142.75;100.00;77013.22;4987883;28;20022;-66
2021/11/28 07:39:18;;;;;;;25.23;14.32;;;;;;;-142.75;100.00;77044.72;4988044;28;20488;-65
2021/11/28 07:41:44;;;;;;;28.30;15.33;;;;;;;-142.75;100.00;77042.75;4986959;28;20023;-65
2021/11/28 07:44:09;;;;;;;27.27;16.20;;;;;;;-142.75;100.00;77040.78;4987808;28;20022;-65
2021/11/28 07:46:34;;;;;;;27.53;15.17;;;;;;;-142.75;100.00;77032.91;4987499;28;20109;-66
2021/11/28 07:49:00;;;;;;;25.42;15.68;;;;;;;-142.75;100.00;77032.91;4987675;28;20790;-65
2021/11/28 07:51:25;;;;;;;29.73;16.80;;;;;;;-142.75;100.00;77015.19;4986944;28;21178;-65
2021/11/28 07:53:51;;;;;;;31.05;16.90;;;;;;;-142.75;100.00;77027.00;4987488;28;20079;-66
2021/11/28 07:56:22;;;;;;;30.37;16.73;;;;;;;-142.75;100.00;77038.81;4987716;28;20075;-65
2021/11/28 07:58:47;;;;;;;27.47;15.37;;;;;;;-142.75;100.00;77028.97;4986550;28;20418;-65
2021/11/28 08:01:13;;;;;;;26.63;15.50;;;;;;;-142.75;100.00;77032.91;4986469;28;20071;-65
2021/11/28 08:03:38;;;;;;;30.40;17.38;;;;;;;-142.75;100.00;77013.22;4986772;28;20031;-65
2021/11/28 08:06:03;;;;;;;26.00;15.67;;;;;;;-142.75;100.00;77009.28;4987373;28;20037;-65
2021/11/28 08:08:31;;;;;;;25.17;14.45;;;;;;;-142.75;100.00;77017.16;4985585;28;20392;-65
2021/11/28 08:10:57;;;;;;;26.53;14.90;;;;;;;-142.75;100.00;77015.19;4986524;28;20071;-65
2021/11/28 08:13:22;;;;;;;27.85;16.60;;;;;;;-142.75;100.00;77007.31;4987371;28;20034;-65
2021/11/28 08:15:48;;;;;;;29.00;16.25;;;;;;;-142.75;100.00;77009.28;4987339;28;20076;-65
2021/11/28 08:18:13;;;;;;;34.45;18.00;;;;;;;-142.75;100.00;77007.31;4987529;28;20036;-65
2021/11/28 08:20:39;;;;;;;32.90;18.52;;;;;;;-142.75;100.00;77001.41;4986388;28;20068;-65
2021/11/28 08:23:04;;;;;;;33.90;19.20;;;;;;;-142.75;100.00;77005.34;4987140;28;20469;-66
2021/11/28 08:25:30;;;;;;;34.38;19.30;;;;;;;-142.75;100.00;77001.41;4987511;28;20022;-65
2021/11/28 08:27:56;;;;;;;33.63;19.85;;;;;;;-142.75;100.00;77003.38;4987055;28;20022;-65
2021/11/28 08:30:21;;;;;;;37.47;19.55;;;;;;;-142.75;100.00;76999.44;4986348;28;20491;-65
2021/11/28 08:32:48;;;;;;;36.60;20.80;;;;;;;-142.75;100.00;76999.44;4987358;28;20029;-65
2021/11/28 08:35:15;;;;;;;37.33;20.83;;;;;;;-142.75;100.00;77003.38;4987230;28;20049;-65
2021/11/28 08:37:41;;;;;;;37.10;19.20;;;;;;;-142.75;100.00;77003.38;4986904;28;20027;-65
2021/11/28 08:40:07;;;;;;;;;;;;;;;-142.75;100.00;76985.66;4986608;28;20109;-65
2021/11/28 08:42:33;;;;;;;32.10;17.73;;;;;;;-142.75;100.00;76999.44;4985654;28;19979;-65
2021/11/28 08:45:02;;;;;;;27.93;15.77;;;;;;;-142.75;100.00;76987.63;4986934;28;20022;-65
2021/11/28 08:47:28;;;;;;;29.90;15.10;;;;;;;-142.75;100.00;76993.53;4986859;28;20058;-66
2021/11/28 08:49:53;;;;;;;26.33;13.80;;;;;;;-142.75;100.00;76991.56;4985887;28;20435;-65
2021/11/28 08:52:18;;;;;;;25.95;13.80;;;;;;;-142.75;100.00;76999.44;4987218;28;20449;-65
2021/11/28 08:54:44;;;;;;;25.63;12.25;;;;;;;-142.75;100.00;76995.50;4986759;28;20121;-65
2021/11/28 08:57:09;;;;;;;23.98;12.57;;;;;;;-142.75;100.00;76995.50;4986840;28;20026;-65
2021/11/28 08:59:34;;;;;;;18.98;10.50;;;;;;;-142.75;100.00;77001.41;4986564;28;20459;-65
2021/11/28 09:02:00;;;;;;;22.55;11.50;;;;;;;-142.75;100.00;76997.47;4985974;28;20380;-65
2021/11/28 09:04:25;;;;;;;16.95;9.75;;;;;;;-142.75;100.00;77001.41;4985340;28;20549;-65
2021/11/28 09:06:51;;;;;;;17.75;9.48;;;;;;;-142.75;100.00;76993.53;4986607;28;20023;-65
2021/11/28 09:09:16;;;;;;;20.33;8.52;;;;;;;-142.75;100.00;76989.59;4986792;28;20556;-65
2021/11/28 09:11:43;;;;;;;11.07;5.70;;;;;;;-142.75;100.00;77003.38;4985917;28;20062;-64
2021/11/28 09:14:08;;;;;;;;;;;;;;;-142.75;100.00;77015.19;4987395;28;20141;-65
2021/11/28 09:16:33;;;;;;;10.77;5.23;;;;;;;-142.75;100.00;77021.09;4989978;28;19988;-65
2021/11/28 09:19:04;;;;;;;10.80;4.75;;;;;;;-142.75;100.00;77015.19;4989706;28;20034;-65
2021/11/28 09:21:29;;;;;;;12.10;4.07;;;;;;;-142.75;100.00;77013.22;4989052;28;20030;-65
2021/11/28 09:26:42;;;;;;;5.43;2.70;;;;;;;-142.75;100.00;77019.13;4990174;28;20067;-64
2021/11/28 09:29:07;;;;;;;5.23;2.17;;;;;;;-142.75;100.00;77015.19;4989727;28;20075;-64
2021/11/28 09:31:32;;;;;;;5.57;2.45;;;;;;;-142.75;100.00;77021.09;4988902;28;20035;-65
2021/11/28 09:33:59;;;;;;;3.72;1.63;;;;;;;-142.75;100.00;77027.00;4989652;28;20022;-65
2021/11/28 09:36:27;;;;;;;5.20;1.50;;;;;;;-142.75;100.00;77025.03;4989679;28;20026;-65
2021/11/28 09:38:53;;;;;;;4.60;1.50;;;;;;;-142.75;100.00;77038.81;4989565;28;20075;-66
2021/11/28 09:41:19;;;;;;;3.85;1.25;;;;;;;-142.75;100.00;77042.75;4987751;28;20026;-65
2021/11/28 09:43:49;;;;;;;3.15;1.20;;;;;;;-142.75;100.00;77052.59;4983761;28;20022;-65
2021/11/28 09:46:20;;;;;;;2.33;0.70;;;;;;;-142.75;100.00;77050.63;4984424;28;20058;-65
2021/11/28 09:48:47;;;;;;;3.40;1.00;;;;;;;-142.75;100.00;77050.63;4982417;28;20032;-65
2021/11/28 09:51:13;;;;;;;2.57;0.80;;;;;;;-142.75;100.00;77076.22;4983371;28;20109;-65
2021/11/28 09:53:39;;;;;;;;;;;;;;;-142.75;100.00;77084.09;4988177;28;20039;-66
2021/11/28 09:56:06;;;;;;;2.47;0.70;;;;;;;-142.75;100.00;77097.88;4987182;28;19921;-65
2021/11/28 09:58:32;;;;;;;6.27;0.93;;;;;;;-142.75;100.00;77095.91;4987480;28;20026;-65
2021/11/28 10:01:00;;;;;;;2.22;0.82;;;;;;;-142.75;100.00;77107.72;4983445;28;20467;-66
2021/11/28 10:03:26;;;;;;;1.60;0.50;;;;;;;-142.75;100.00;77109.69;4986082;28;20049;-65
2021/11/28 10:05:53;;;;;;;2.83;0.63;;;;;;;-142.75;100.00;77113.63;4986421;28;20026;-64
2021/11/28 10:08:22;;;;;;;2.20;0.60;;;;;;;-142.75;100.00;77123.47;4985602;28;20031;-65
2021/11/28 10:11:08;;;;;;;2.00;0.50;;;;;;;-142.75;100.00;77109.69;4981960;28;20029;-65
2021/11/28 10:13:33;;;;;;;2.73;0.50;;;;;;;-142.75;100.00;77111.66;4974390;28;20034;-66
2021/11/28 10:15:59;;;;;;;0.95;0.47;;;;;;;-142.75;100.00;77117.56;4981466;28;20557;-65
2021/11/28 10:18:24;;;;;;;1.67;0.67;;;;;;;-142.75;100.00;77109.69;4988639;28;20031;-65
2021/11/28 10:20:51;;;;;;;1.33;0.50;;;;;;;-142.75;100.00;77105.75;4988211;28;20650;-66
2021/11/28 10:23:16;;;;;;;3.03;0.60;;;;;;;-142.75;100.00;77086.06;4987566;28;20424;-65
2021/11/28 10:25:42;;;;;;;1.27;0.50;;;;;;;-142.75;100.00;77082.13;4988307;28;20109;-65
2021/11/28 10:28:10;;;;;;;3.33;0.80;;;;;;;-142.75;100.00;77072.28;4988983;28;20495;-65
2021/11/28 10:30:40;;;;;;;2.30;0.80;;;;;;;-142.75;100.00;77064.41;4988328;28;20073;-65
2021/11/28 10:33:07;;;;;;;1.03;0.47;;;;;;;-142.75;100.00;77050.63;4988963;28;20559;-66
2021/11/28 10:35:32;;;;;;;1.37;0.47;;;;;;;-142.75;100.00;77038.81;4988907;28;20062;-65
2021/11/28 10:37:58;;;;;;;1.27;0.57;;;;;;;-142.75;100.00;77027.00;4988900;28;20061;-65
2021/11/28 10:40:26;;;;;;;1.13;0.52;;;;;;;-142.75;100.00;77013.22;4988067;28;20054;-65
2021/11/28 10:43:09;;;;;;;3.20;0.80;;;;;;;-142.75;100.00;77021.09;4988478;28;20497;-65
2021/11/28 10:45:47;;;;;;;2.00;0.70;;;;;;;-142.75;100.00;77038.81;4987327;28;20038;-66
2021/11/28 10:48:13;;;;;;;1.87;0.47;;;;;;;-142.75;100.00;77034.88;4988674;28;20042;-65
2021/11/28 10:50:38;;;;;;;1.98;0.60;;;;;;;-142.75;100.00;77044.72;4987735;28;20035;-66
2021/11/28 10:53:08;;;;;;;2.58;0.90;;;;;;;-142.75;100.00;77040.78;4988481;28;20019;-66
2021/11/28 10:55:37;;;;;;;1.57;0.60;;;;;;;-142.75;100.00;77017.16;4988438;28;20034;-66
2021/11/28 10:58:20;;;;;;;2.40;0.83;;;;;;;-142.75;100.00;77005.34;4988254;28;20034;-66
2021/11/28 11:00:45;;;;;;;2.57;0.90;;;;;;;-142.75;100.00;77003.38;4987822;28;20031;-65